This is the latest recevied weather packets stored in our database for station/object SR9NCI. If no packets are shown the sender has not sent any weather packets the latest 1 day(s).
| Time | Temp. | Humidity | Pressure | Rain* | Wind** | Luminosity | Snow |
|---|---|---|---|---|---|---|---|
| 1778008954 | 22.22° C | - | 0 hPa | - | 2.68 m/s, 180° | - | - |
| 1778008712 | 22.22° C | - | 0 hPa | - | 4.02 m/s, 177° | - | - |
| 1778008471 | 22.22° C | - | 0 hPa | - | 2.24 m/s, 162° | - | - |
| 1778008229 | 22.22° C | - | 0 hPa | - | 4.02 m/s, 186° | - | - |
| 1778007987 | 22.78° C | - | 0 hPa | - | 4.02 m/s, 187° | - | - |
| 1778007746 | 22.78° C | - | 0 hPa | - | 3.58 m/s, 173° | - | - |
| 1778007505 | 22.78° C | - | 0 hPa | - | 4.02 m/s, 182° | - | - |
| 1778007262 | 22.78° C | - | 0 hPa | - | 4.47 m/s, 184° | - | - |
| 1778007021 | 22.78° C | - | 0 hPa | - | 5.81 m/s, 202° | - | - |
| 1778006780 | 22.78° C | - | 0 hPa | - | 4.47 m/s, 182° | - | - |
| 1778006532 | 22.78° C | - | 0 hPa | - | 4.47 m/s, 178° | - | - |
| 1778006289 | 22.78° C | - | 0 hPa | - | 3.13 m/s, 183° | - | - |
| 1778006048 | 22.78° C | - | 0 hPa | - | 4.47 m/s, 195° | - | - |
| 1778005807 | 22.78° C | - | 0 hPa | - | 3.13 m/s, 187° | - | - |
| 1778005565 | 22.78° C | - | 0 hPa | - | 4.02 m/s, 189° | - | - |
| 1778005324 | 22.78° C | - | 0 hPa | - | 3.58 m/s, 177° | - | - |
| 1778005081 | 22.78° C | - | 0 hPa | - | 3.58 m/s, 183° | - | - |
| 1778004840 | 23.33° C | - | 0 hPa | - | 4.02 m/s, 177° | - | - |
| 1778004599 | 23.33° C | - | 0 hPa | - | 3.58 m/s, 187° | - | - |
| 1778004357 | 23.33° C | - | 0 hPa | - | 4.92 m/s, 182° | - | - |
| 1778004108 | 23.33° C | - | 0 hPa | - | 4.92 m/s, 175° | - | - |
| 1778003866 | 23.33° C | - | 0 hPa | - | 4.92 m/s, 175° | - | - |
| 1778003625 | 23.33° C | - | 0 hPa | - | 4.47 m/s, 175° | - | - |
| 1778003384 | 23.33° C | - | 0 hPa | - | 4.47 m/s, 166° | - | - |
| 1778003141 | 23.33° C | - | 0 hPa | - | 4.47 m/s, 168° | - | - |
* Rain since midnight (hover to see other rain measurements)
** Current wind speed in m/s (hover to see current wind gust speed)